Time;durP1;ratioP1;P1;durP2;ratioP2;P2;SDS_P1;SDS_P2;PMS_P1;PMS_P2;Temp;Humidity;BMP_temperature;BMP_pressure;BME280_temperature;BME280_humidity;BME280_pressure;Samples;Min_cycle;Max_cycle;Signal;HPM_P1;HPM_P2
2022/06/21 00:01:51;;;;;;;10.52;3.80;;;13.50;99.90;;;;;;5056310;28;39172;-77
2022/06/21 00:04:17;;;;;;;10.57;4.13;;;13.50;99.90;;;;;;5087051;28;37771;-77
2022/06/21 00:06:44;;;;;;;10.82;4.00;;;13.50;99.90;;;;;;5056345;28;40662;-77
2022/06/21 00:09:14;;;;;;;12.15;4.25;;;13.40;99.90;;;;;;5059129;27;37819;-77
2022/06/21 00:11:40;;;;;;;13.30;4.30;;;13.40;99.90;;;;;;5061913;27;38171;-77
2022/06/21 00:14:07;;;;;;;9.75;3.83;;;13.40;99.90;;;;;;5043150;28;36869;-76
2022/06/21 00:16:33;;;;;;;11.05;3.72;;;13.40;99.90;;;;;;5072182;27;38711;-77
2022/06/21 00:19:01;;;;;;;9.82;4.22;;;13.40;99.90;;;;;;5052711;28;39612;-76
2022/06/21 00:21:33;;;;;;;8.35;3.92;;;13.40;99.90;;;;;;5060265;28;47488;-76
2022/06/21 00:24:00;;;;;;;9.88;3.80;;;13.40;99.90;;;;;;5061729;28;37255;-76
2022/06/21 00:26:28;;;;;;;10.80;4.13;;;13.40;99.90;;;;;;5064094;27;38943;-76
2022/06/21 00:28:56;;;;;;;9.55;3.95;;;13.40;99.90;;;;;;5076700;27;39592;-77
2022/06/21 00:31:31;;;;;;;10.10;3.58;;;13.30;99.90;;;;;;5069650;28;39242;-77
2022/06/21 00:34:11;;;;;;;12.80;4.47;;;13.30;99.90;;;;;;5055160;28;39723;-76
2022/06/21 00:36:38;;;;;;;12.18;4.25;;;13.30;99.90;;;;;;5062201;28;46388;-76
2022/06/21 00:39:05;;;;;;;11.30;4.10;;;13.20;99.90;;;;;;5058345;27;39562;-77
2022/06/21 00:41:46;;;;;;;11.18;4.32;;;13.20;99.90;;;;;;5056505;27;40175;-77
2022/06/21 00:44:46;;;;;;;8.88;4.10;;;13.20;99.90;;;;;;5062144;27;37829;-77
2022/06/21 00:47:31;;;;;;;9.40;4.20;;;13.10;99.90;;;;;;5081912;27;37369;-77
2022/06/21 00:50:28;;;;;;;9.63;3.88;;;13.10;99.90;;;;;;5037494;28;38656;-77
2022/06/21 00:53:17;;;;;;;10.32;5.00;;;13.00;99.90;;;;;;5058222;27;48349;-77
2022/06/21 00:55:49;;;;;;;7.40;4.53;;;13.10;99.90;;;;;;5054371;28;47411;-77
2022/06/21 00:58:18;;;;;;;9.07;4.03;;;13.10;99.90;;;;;;5088911;27;39066;-76
2022/06/21 01:01:05;;;;;;;11.20;4.80;;;13.10;99.90;;;;;;5041211;28;39484;-77
2022/06/21 01:03:39;;;;;;;13.32;4.45;;;13.00;99.90;;;;;;5065714;27;48893;-77
2022/06/21 01:06:15;;;;;;;9.73;4.35;;;13.10;99.90;;;;;;5059056;27;34798;-77
2022/06/21 01:08:45;;;;;;;11.00;5.28;;;13.00;99.90;;;;;;5066781;27;39502;-77
2022/06/21 01:11:18;;;;;;;13.35;5.53;;;13.00;99.90;;;;;;5062562;27;38595;-77
2022/06/21 01:13:47;;;;;;;13.63;5.88;;;12.90;99.90;;;;;;5060642;28;38504;-77
2022/06/21 01:16:14;;;;;;;13.65;5.80;;;12.90;99.90;;;;;;5051385;28;37387;-77
2022/06/21 01:18:42;;;;;;;11.77;5.20;;;13.00;99.90;;;;;;5074200;28;39740;-77
2022/06/21 01:21:11;;;;;;;16.35;6.05;;;12.90;99.90;;;;;;5045347;28;40531;-77
2022/06/21 01:23:53;;;;;;;14.32;6.03;;;12.90;99.90;;;;;;5091832;27;39392;-77
2022/06/21 01:26:41;;;;;;;14.93;5.95;;;12.90;99.90;;;;;;5059838;28;38203;-77
2022/06/21 01:29:12;;;;;;;13.23;6.22;;;12.90;99.90;;;;;;5063315;27;39868;-77
2022/06/21 01:31:38;;;;;;;12.93;5.95;;;12.80;99.90;;;;;;5059311;28;38175;-77
2022/06/21 01:34:13;;;;;;;9.68;5.47;;;12.80;99.90;;;;;;5043495;28;38426;-77
2022/06/21 01:36:39;;;;;;;12.30;5.60;;;12.80;99.90;;;;;;5048076;28;37973;-77
2022/06/21 01:39:09;;;;;;;13.32;5.25;;;12.70;99.90;;;;;;5080243;27;39805;-76
2022/06/21 01:41:45;;;;;;;10.50;5.72;;;12.70;99.90;;;;;;5049300;28;38238;-76
2022/06/21 01:44:18;;;;;;;10.93;5.22;;;12.70;99.90;;;;;;5054395;28;40398;-77
2022/06/21 01:46:44;;;;;;;;;;;12.60;99.90;;;;;;5056705;28;38214;-78
2022/06/21 01:49:13;;;;;;;10.05;5.35;;;12.50;99.90;;;;;;5056186;28;41014;-76
2022/06/21 01:51:48;;;;;;;10.18;4.75;;;12.50;99.90;;;;;;5055532;28;39916;-76
2022/06/21 01:54:18;;;;;;;9.63;4.80;;;12.50;99.90;;;;;;5046579;28;39025;-76
2022/06/21 01:56:47;;;;;;;11.88;5.47;;;12.50;99.90;;;;;;5042595;28;37538;-77
2022/06/21 01:59:23;;;;;;;14.52;5.15;;;12.40;99.90;;;;;;5043031;27;38591;-77
2022/06/21 02:01:53;;;;;;;13.80;5.05;;;12.30;99.90;;;;;;5061408;27;38283;-76
2022/06/21 02:04:23;;;;;;;8.48;4.93;;;12.30;99.90;;;;;;5060381;27;38646;-76
2022/06/21 02:06:51;;;;;;;11.55;5.75;;;12.30;99.90;;;;;;5057898;27;36807;-77
2022/06/21 02:09:31;;;;;;;8.93;4.82;;;12.20;99.90;;;;;;5090618;27;40765;-76
2022/06/21 02:12:06;;;;;;;11.55;5.38;;;12.20;99.90;;;;;;5086647;28;39704;-77
2022/06/21 02:14:38;;;;;;;9.60;5.05;;;12.10;99.90;;;;;;5061017;27;45764;-77
2022/06/21 02:17:19;;;;;;;9.93;4.60;;;12.10;99.90;;;;;;5060581;27;38183;-77
2022/06/21 02:19:48;;;;;;;9.77;4.55;;;12.00;99.90;;;;;;5062212;27;38828;-76
2022/06/21 02:22:21;;;;;;;13.18;4.65;;;11.90;99.90;;;;;;5063818;27;38779;-77
2022/06/21 02:24:49;;;;;;;11.18;4.88;;;11.90;99.90;;;;;;5059819;28;39339;-78
2022/06/21 02:27:18;;;;;;;12.05;4.68;;;11.90;99.90;;;;;;5081522;27;38251;-77
2022/06/21 02:29:51;;;;;;;11.18;4.50;;;11.90;99.90;;;;;;5034159;28;40632;-77
2022/06/21 02:32:29;;;;;;;9.95;4.38;;;11.90;99.90;;;;;;5041380;28;39619;-78
2022/06/21 02:35:05;;;;;;;11.55;4.63;;;11.90;99.90;;;;;;5044048;28;39357;-78
2022/06/21 02:37:32;;;;;;;13.93;5.47;;;11.90;99.90;;;;;;5036574;28;47394;-78
2022/06/21 02:40:00;;;;;;;13.25;4.82;;;11.90;99.90;;;;;;5057342;28;41132;-78
2022/06/21 02:42:30;;;;;;;16.38;4.43;;;11.90;99.90;;;;;;5051774;28;39350;-78
2022/06/21 02:45:07;;;;;;;7.72;4.70;;;11.90;99.90;;;;;;5036778;28;40284;-78
2022/06/21 02:47:42;;;;;;;10.05;4.85;;;11.90;99.90;;;;;;5064381;28;47661;-78
2022/06/21 02:50:35;;;;;;;9.23;4.25;;;11.80;99.90;;;;;;5041739;28;39513;-77
2022/06/21 02:53:04;;;;;;;;;;;11.80;99.90;;;;;;5043208;28;40395;-78
2022/06/21 02:55:45;;;;;;;11.38;4.45;;;11.80;99.90;;;;;;5083496;28;47217;-78
2022/06/21 02:58:24;;;;;;;7.63;4.00;;;11.70;99.90;;;;;;5044304;28;36820;-77
2022/06/21 03:00:52;;;;;;;6.53;4.28;;;11.70;99.90;;;;;;5039683;28;37632;-77
2022/06/21 03:03:26;;;;;;;9.68;5.10;;;11.80;99.90;;;;;;5039835;28;38722;-77
2022/06/21 03:05:56;;;;;;;10.43;5.75;;;11.70;99.90;;;;;;5039794;28;39002;-78
2022/06/21 03:08:23;;;;;;;10.70;5.15;;;11.80;99.90;;;;;;5047618;27;37216;-77
2022/06/21 03:10:51;;;;;;;7.53;5.10;;;11.70;99.90;;;;;;5074606;27;40113;-77
2022/06/21 03:13:24;;;;;;;9.60;5.20;;;11.70;99.90;;;;;;5039653;28;39248;-78
2022/06/21 03:15:55;;;;;;;9.98;5.20;;;11.70;99.90;;;;;;5048444;28;39297;-77
2022/06/21 03:18:37;;;;;;;9.95;4.68;;;11.60;99.90;;;;;;5055917;27;37176;-78
2022/06/21 03:21:04;;;;;;;9.88;5.07;;;11.60;99.90;;;;;;5045452;27;40530;-78
2022/06/21 03:23:32;;;;;;;10.68;5.43;;;11.50;99.90;;;;;;5068099;28;40737;-78
2022/06/21 03:26:01;;;;;;;8.13;5.35;;;11.50;99.90;;;;;;5037226;28;39548;-78
2022/06/21 03:28:38;;;;;;;10.60;5.60;;;11.50;99.90;;;;;;5052038;28;47028;-77
2022/06/21 03:31:30;;;;;;;8.85;4.80;;;11.40;99.90;;;;;;5037972;28;38349;-78
2022/06/21 03:34:06;;;;;;;8.85;4.82;;;11.40;99.90;;;;;;5038250;28;39585;-78
2022/06/21 03:36:33;;;;;;;10.75;5.25;;;11.40;99.90;;;;;;5046454;28;47368;-78
2022/06/21 03:39:10;;;;;;;13.45;5.63;;;11.40;99.90;;;;;;5046252;27;38257;-78
2022/06/21 03:41:42;;;;;;;12.73;5.50;;;11.40;99.90;;;;;;5048353;28;47250;-78
2022/06/21 03:44:29;;;;;;;11.98;5.25;;;11.50;99.90;;;;;;5047182;28;38941;-78
2022/06/21 03:47:14;;;;;;;12.88;5.65;;;11.60;99.90;;;;;;5054771;27;38058;-78
2022/06/21 03:49:43;;;;;;;13.82;5.72;;;11.60;99.90;;;;;;5046197;27;48646;-78
2022/06/21 03:52:41;;;;;;;11.30;4.88;;;11.60;99.90;;;;;;5068805;27;40788;-78
2022/06/21 03:55:15;;;;;;;8.57;5.05;;;11.70;99.90;;;;;;5083630;28;39549;-78
2022/06/21 03:57:49;;;;;;;11.35;5.53;;;11.70;99.90;;;;;;5076174;28;38862;-78
2022/06/21 04:00:16;;;;;;;9.02;4.93;;;11.60;99.90;;;;;;5049121;27;37407;-77
2022/06/21 04:02:46;;;;;;;8.07;4.57;;;11.70;99.90;;;;;;5057573;28;40592;-78
2022/06/21 04:05:37;;;;;;;12.63;6.03;;;11.80;99.90;;;;;;5056071;27;40507;-78
2022/06/21 04:08:12;;;;;;;10.63;5.10;;;11.90;99.90;;;;;;5055805;27;38609;-78
2022/06/21 04:10:52;;;;;;;11.55;5.72;;;11.90;99.90;;;;;;5058387;28;38264;-78
2022/06/21 04:13:22;;;;;;;13.98;5.72;;;11.90;99.90;;;;;;5053573;28;40258;-78
2022/06/21 04:16:11;;;;;;;10.23;5.03;;;12.00;99.90;;;;;;5070113;27;40276;-77
2022/06/21 04:18:45;;;;;;;9.70;5.00;;;12.00;99.90;;;;;;5047315;28;46997;-78
2022/06/21 04:21:49;;;;;;;9.20;5.82;;;12.00;99.90;;;;;;5059495;27;38242;-78
2022/06/21 04:24:40;;;;;;;13.27;5.68;;;12.00;99.90;;;;;;5050987;27;38847;-76
2022/06/21 04:27:18;;;;;;;12.00;6.00;;;12.10;99.90;;;;;;5085470;27;38852;-76
2022/06/21 04:29:53;;;;;;;10.00;6.03;;;12.10;99.90;;;;;;5073665;27;38708;-76
2022/06/21 04:32:50;;;;;;;13.38;6.63;;;12.20;99.90;;;;;;5073223;27;38142;-76
2022/06/21 04:35:29;;;;;;;10.82;5.47;;;12.20;99.90;;;;;;5029450;28;40861;-77
2022/06/21 04:38:06;;;;;;;9.95;5.43;;;12.40;99.90;;;;;;5040554;28;38968;-76
2022/06/21 04:40:45;;;;;;;8.88;5.47;;;12.40;99.90;;;;;;5054111;27;48616;-77
2022/06/21 04:43:18;;;;;;;10.52;6.13;;;12.50;99.90;;;;;;5058996;27;37340;-77
2022/06/21 04:45:55;;;;;;;12.13;6.43;;;12.50;99.90;;;;;;5056610;28;40422;-77
2022/06/21 04:48:37;;;;;;;13.60;5.85;;;12.60;99.90;;;;;;5063026;27;39300;-76
2022/06/21 04:51:18;;;;;;;9.40;5.60;;;12.60;99.90;;;;;;5043491;28;38451;-77
2022/06/21 04:54:04;;;;;;;12.30;6.00;;;12.70;99.90;;;;;;5069272;28;39818;-77
2022/06/21 04:56:38;;;;;;;9.82;5.60;;;12.70;99.90;;;;;;5041009;28;49033;-76
2022/06/21 04:59:25;;;;;;;15.27;5.90;;;12.90;99.90;;;;;;5056587;27;39210;-77
2022/06/21 05:01:52;;;;;;;10.90;5.70;;;13.10;99.90;;;;;;5047960;28;46992;-77
2022/06/21 05:04:24;;;;;;;12.07;5.93;;;13.50;99.90;;;;;;5049375;28;36975;-77
2022/06/21 05:06:52;;;;;;;15.63;5.25;;;13.80;99.90;;;;;;5038650;28;39505;-76
2022/06/21 05:09:22;;;;;;;11.65;4.32;;;14.10;99.90;;;;;;5051999;28;39620;-76
2022/06/21 05:11:58;;;;;;;10.82;4.95;;;14.40;99.90;;;;;;5068587;28;39495;-77
2022/06/21 05:14:29;;;;;;;9.30;3.95;;;14.50;99.90;;;;;;5056821;28;38696;-77
2022/06/21 05:16:55;;;;;;;9.55;4.38;;;14.70;99.90;;;;;;5038482;28;38323;-77
2022/06/21 05:19:35;;;;;;;10.63;4.80;;;15.10;99.90;;;;;;5031918;28;39230;-77
2022/06/21 05:22:16;;;;;;;10.38;3.58;;;15.10;99.90;;;;;;5036617;28;39311;-77
2022/06/21 05:24:43;;;;;;;10.23;3.30;;;15.20;99.90;;;;;;5034746;28;36349;-76
2022/06/21 05:27:22;;;;;;;8.90;3.25;;;15.30;99.90;;;;;;5038084;28;39040;-77
2022/06/21 05:29:54;;;;;;;10.68;4.25;;;15.40;99.90;;;;;;5040199;28;39482;-78
2022/06/21 05:32:31;;;;;;;9.40;3.15;;;15.60;99.90;;;;;;5029846;28;38236;-80
2022/06/21 05:35:07;;;;;;;6.60;3.35;;;15.80;99.90;;;;;;5060550;28;38070;-78
2022/06/21 05:37:47;;;;;;;11.77;3.83;;;15.80;99.90;;;;;;5037950;28;48622;-78
2022/06/21 05:40:32;;;;;;;7.78;4.00;;;15.70;99.90;;;;;;5033389;28;39632;-78
2022/06/21 05:43:00;;;;;;;12.88;4.63;;;15.60;99.90;;;;;;5040090;28;39023;-78
2022/06/21 05:45:32;;;;;;;8.40;3.40;;;15.80;99.90;;;;;;5043080;28;37438;-78
2022/06/21 05:48:01;;;;;;;11.68;3.83;;;16.00;99.90;;;;;;5046062;28;37532;-77
2022/06/21 05:50:31;;;;;;;10.23;4.25;;;16.20;99.90;;;;;;5044789;27;39346;-78
2022/06/21 05:53:26;;;;;;;9.93;4.15;;;16.20;99.90;;;;;;5038938;28;39183;-78
2022/06/21 05:55:53;;;;;;;8.77;3.47;;;16.10;99.90;;;;;;5034562;28;47233;-78
2022/06/21 05:58:28;;;;;;;9.15;3.60;;;15.60;99.90;;;;;;5042498;28;39921;-78
2022/06/21 06:01:15;;;;;;;7.45;3.38;;;15.30;99.90;;;;;;5058550;28;40492;-78
2022/06/21 06:03:52;;;;;;;7.90;2.97;;;15.50;99.90;;;;;;5024051;28;46995;-78
2022/06/21 06:06:21;;;;;;;10.50;3.70;;;16.10;99.90;;;;;;5020916;27;35997;-78
2022/06/21 06:08:54;;;;;;;8.18;3.67;;;16.10;99.90;;;;;;5023915;28;39889;-78
2022/06/21 06:11:57;;;;;;;10.63;3.63;;;15.60;99.90;;;;;;5024821;28;39005;-79
2022/06/21 06:14:14;;;;;;;8.25;3.20;;;15.70;99.90;;;;;;5059617;27;38158;-77
2022/06/21 06:16:45;;;;;;;11.05;3.28;;;16.00;99.90;;;;;;5072885;27;39051;-78
2022/06/21 06:19:20;;;;;;;7.57;2.95;;;15.90;99.90;;;;;;5069397;28;39373;-77
2022/06/21 06:22:16;;;;;;;6.70;3.05;;;16.00;99.90;;;;;;5051369;28;39431;-76
2022/06/21 06:25:19;;;;;;;8.88;2.95;;;16.30;99.90;;;;;;5063557;28;47277;-76
2022/06/21 06:28:14;;;;;;;6.13;2.92;;;16.60;99.90;;;;;;5049888;28;48403;-77
2022/06/21 06:31:09;;;;;;;7.65;2.65;;;16.30;99.90;;;;;;5046901;28;48962;-76
2022/06/21 06:33:39;;;;;;;11.98;2.90;;;16.40;99.90;;;;;;5053747;28;47047;-77
2022/06/21 06:36:14;;;;;;;8.68;3.00;;;16.60;99.90;;;;;;5052319;27;37501;-77
2022/06/21 06:38:41;;;;;;;7.72;3.40;;;17.00;99.90;;;;;;5053965;28;38248;-76
2022/06/21 06:41:15;;;;;;;7.88;2.97;;;17.10;99.90;;;;;;5036880;28;39613;-77
2022/06/21 06:43:55;;;;;;;5.68;2.28;;;16.90;99.90;;;;;;5039012;28;39682;-77
2022/06/21 06:46:27;;;;;;;5.70;2.50;;;16.80;99.90;;;;;;5049462;28;38935;-77
2022/06/21 06:49:05;;;;;;;;;;;17.40;99.90;;;;;;5052511;28;38356;-81
2022/06/21 06:51:39;;;;;;;9.40;2.30;;;17.40;99.90;;;;;;5057252;28;47472;-81
2022/06/21 06:54:15;;;;;;;9.40;2.28;;;17.60;99.90;;;;;;5051949;28;39161;-80
2022/06/21 06:57:01;;;;;;;7.45;2.00;;;17.60;99.90;;;;;;5040953;28;39315;-80
2022/06/21 06:59:27;;;;;;;6.03;1.52;;;17.50;99.90;;;;;;5061085;27;47401;-80
2022/06/21 07:02:13;;;;;;;8.48;2.10;;;17.20;99.90;;;;;;5085501;27;39345;-80
2022/06/21 07:04:44;;;;;;;10.95;2.40;;;17.00;99.90;;;;;;5052910;28;47065;-80
2022/06/21 07:07:30;;;;;;;6.22;2.20;;;17.20;99.90;;;;;;5050294;27;37964;-80
2022/06/21 07:10:02;;;;;;;6.85;2.22;;;17.80;99.90;;;;;;5037041;28;37397;-80
2022/06/21 07:12:30;;;;;;;6.47;2.35;;;17.70;99.90;;;;;;5053790;28;47556;-78
2022/06/21 07:14:57;;;;;;;10.15;3.22;;;17.90;99.90;;;;;;5056979;28;37723;-80
2022/06/21 07:17:39;;;;;;;8.60;2.33;;;18.30;99.90;;;;;;5068974;27;38540;-80
2022/06/21 07:20:14;;;;;;;10.07;2.33;;;18.40;99.90;;;;;;5087400;27;39284;-80
2022/06/21 07:22:40;;;;;;;4.18;1.90;;;18.60;99.90;;;;;;5055898;28;41300;-80
2022/06/21 07:25:29;;;;;;;6.32;2.30;;;18.90;99.90;;;;;;5056392;27;38353;-80
2022/06/21 07:28:00;;;;;;;5.80;2.03;;;18.80;99.90;;;;;;5056574;28;39406;-77
2022/06/21 07:30:38;;;;;;;4.80;1.80;;;19.30;99.90;;;;;;5040009;28;37972;-79
2022/06/21 07:33:21;;;;;;;5.40;1.83;;;19.60;99.90;;;;;;5071016;28;40744;-78
2022/06/21 07:35:52;;;;;;;5.88;1.83;;;19.70;99.90;;;;;;5036407;28;39494;-79
2022/06/21 07:38:28;;;;;;;5.15;1.98;;;19.60;99.90;;;;;;5039054;28;39347;-78
2022/06/21 07:40:59;;;;;;;6.97;1.63;;;19.50;99.90;;;;;;5040892;28;36442;-78
2022/06/21 07:43:32;;;;;;;5.63;2.22;;;19.80;99.90;;;;;;5059056;28;39030;-78
2022/06/21 07:46:01;;;;;;;9.82;2.50;;;19.90;99.90;;;;;;5061585;27;38987;-78
2022/06/21 07:48:51;;;;;;;5.75;1.92;;;19.90;99.90;;;;;;5051449;28;46966;-78
2022/06/21 07:51:26;;;;;;;6.07;1.92;;;19.80;99.90;;;;;;5056630;27;37836;-77
2022/06/21 07:54:04;;;;;;;4.05;1.92;;;19.80;99.90;;;;;;5060963;28;39288;-78
2022/06/21 07:56:43;;;;;;;7.97;2.90;;;19.20;99.90;;;;;;5057374;27;49231;-78
2022/06/21 07:59:12;;;;;;;10.05;2.45;;;18.80;99.90;;;;;;5064094;28;39721;-78
2022/06/21 08:07:41;;;;;;;5.10;2.30;;;19.30;99.90;;;;;;5059032;27;49573;-79
2022/06/21 08:10:11;;;;;;;5.72;2.20;;;19.30;99.90;;;;;;5044842;28;38006;-79
2022/06/21 08:12:37;;;;;;;5.30;1.83;;;19.30;99.90;;;;;;5055771;28;39146;-79
2022/06/21 08:15:04;;;;;;;3.72;1.80;;;19.00;99.90;;;;;;5072192;27;38632;-79
2022/06/21 08:17:38;;;;;;;3.13;1.50;;;19.40;99.90;;;;;;5041182;28;40251;-79
2022/06/21 08:20:16;;;;;;;6.72;2.15;;;19.80;99.90;;;;;;5076038;28;38767;-79
2022/06/21 08:23:07;;;;;;;5.78;1.65;;;20.40;99.90;;;;;;5034023;28;39450;-77
2022/06/21 08:26:04;;;;;;;4.65;1.70;;;20.80;99.90;;;;;;5055537;27;49098;-79
2022/06/21 08:28:39;;;;;;;3.05;1.33;;;20.50;99.90;;;;;;5083426;28;47366;-79
2022/06/21 08:31:16;;;;;;;9.27;2.15;;;20.70;99.90;;;;;;5061616;27;38832;-79
2022/06/21 08:33:46;;;;;;;9.02;2.20;;;20.50;99.90;;;;;;5076389;28;37028;-78
2022/06/21 08:36:34;;;;;;;5.60;1.92;;;19.00;99.90;;;;;;5054068;28;38583;-79
2022/06/21 08:39:22;;;;;;;4.78;2.08;;;19.30;99.90;;;;;;5055417;28;37367;-79
2022/06/21 08:42:21;;;;;;;9.32;2.00;;;20.10;99.90;;;;;;5055911;28;47265;-78
2022/06/21 08:45:40;;;;;;;5.07;1.60;;;20.80;99.90;;;;;;5050344;28;48626;-78
2022/06/21 08:48:16;;;;;;;5.15;1.83;;;20.60;99.90;;;;;;5039057;28;48094;-78
2022/06/21 08:50:52;;;;;;;3.88;1.40;;;19.90;99.90;;;;;;5037909;28;38299;-78
2022/06/21 08:53:18;;;;;;;5.05;1.40;;;20.00;99.90;;;;;;5071491;28;39370;-78
2022/06/21 08:55:56;;;;;;;6.40;1.50;;;20.70;99.90;;;;;;5039597;28;36928;-78
2022/06/21 08:58:52;;;;;;;3.47;1.80;;;21.40;99.90;;;;;;5059130;27;39756;-78
2022/06/21 09:01:29;;;;;;;6.18;1.85;;;21.70;99.90;;;;;;5089518;27;40444;-78
2022/06/21 09:04:03;;;;;;;6.13;1.70;;;21.10;99.90;;;;;;5059116;28;37295;-83
2022/06/21 09:06:43;;;;;;;6.78;2.03;;;21.30;99.90;;;;;;5059256;28;47035;-78
2022/06/21 09:09:51;;;;;;;5.40;1.60;;;21.40;99.90;;;;;;5062624;27;39285;-78
2022/06/21 09:12:34;;;;;;;4.50;1.67;;;21.40;99.90;;;;;;5067859;27;38717;-78
2022/06/21 09:15:19;;;;;;;3.75;1.50;;;21.10;99.90;;;;;;5066877;28;38734;-78
2022/06/21 09:18:00;;;;;;;5.03;1.67;;;21.70;99.90;;;;;;5056880;28;47364;-78
2022/06/21 09:20:38;;;;;;;4.43;1.73;;;21.60;99.90;;;;;;5069069;28;38702;-78
2022/06/21 09:23:06;;;;;;;8.20;1.88;;;21.70;99.90;;;;;;5064472;28;40248;-78
2022/06/21 09:25:38;;;;;;;4.82;1.70;;;21.90;99.90;;;;;;5063870;28;40195;-78
2022/06/21 09:28:21;;;;;;;;;;;21.60;99.90;;;;;;5063408;28;37281;-77
2022/06/21 09:31:11;;;;;;;4.65;1.50;;;21.80;99.90;;;;;;5060425;28;40144;-76
2022/06/21 09:33:45;;;;;;;3.08;1.63;;;21.50;99.90;;;;;;5054925;27;47362;-78
2022/06/21 09:36:31;;;;;;;4.70;1.45;;;21.20;99.90;;;;;;5055484;27;40366;-78
2022/06/21 09:39:21;;;;;;;2.63;1.15;;;21.80;99.90;;;;;;5053092;27;37242;-78
2022/06/21 09:41:56;;;;;;;1.63;0.90;;;21.90;99.90;;;;;;5080283;28;47925;-77
2022/06/21 09:44:53;;;;;;;4.28;1.20;;;21.50;99.90;;;;;;5059108;28;39556;-78
2022/06/21 09:47:33;;;;;;;3.67;1.38;;;21.10;99.90;;;;;;5041451;28;40422;-77
2022/06/21 09:50:24;;;;;;;2.95;1.38;;;21.40;99.90;;;;;;5045491;28;37944;-77
2022/06/21 09:53:22;;;;;;;2.53;1.35;;;21.20;99.90;;;;;;5063725;27;48570;-78
2022/06/21 09:56:09;;;;;;;5.05;2.00;;;21.20;99.90;;;;;;5036774;28;48907;-77
2022/06/21 09:58:44;;;;;;;5.88;1.40;;;21.00;99.90;;;;;;5059673;28;48586;-77
2022/06/21 10:01:18;;;;;;;2.72;1.38;;;21.70;99.90;;;;;;5061046;27;38994;-78
2022/06/21 10:04:52;;;;;;;2.50;1.23;;;22.80;99.90;;;;;;5059243;28;40284;-78
2022/06/21 10:07:46;;;;;;;5.65;1.60;;;23.30;99.90;;;;;;4962074;28;47061;-77
2022/06/21 10:10:24;;;;;;;5.43;1.25;;;23.80;99.90;;;;;;4959515;28;39044;-78
2022/06/21 10:12:59;;;;;;;4.60;1.27;;;23.70;99.90;;;;;;5040093;28;38112;-77
2022/06/21 10:15:46;;;;;;;3.97;1.40;;;23.00;99.90;;;;;;5053733;28;38896;-77
2022/06/21 10:18:37;;;;;;;5.10;1.60;;;23.20;99.90;;;;;;5037596;28;39751;-77
2022/06/21 10:21:35;;;;;;;3.30;1.13;;;23.60;99.90;;;;;;5035969;28;38110;-78
2022/06/21 10:24:19;;;;;;;4.45;1.08;;;23.50;99.90;;;;;;5035265;28;36703;-77
2022/06/21 10:27:14;;;;;;;4.00;1.08;;;23.40;99.90;;;;;;5055806;27;49360;-78
2022/06/21 10:29:55;;;;;;;4.68;1.70;;;23.60;99.90;;;;;;5063528;27;47068;-74
2022/06/21 10:32:46;;;;;;;5.83;1.60;;;23.80;99.90;;;;;;5060601;27;39085;-77
2022/06/21 10:35:36;;;;;;;4.38;1.58;;;23.50;99.90;;;;;;5052232;28;37379;-77
2022/06/21 10:38:33;;;;;;;3.42;1.52;;;22.90;99.90;;;;;;5080291;27;38158;-78
2022/06/21 10:41:17;;;;;;;4.80;1.50;;;22.60;99.90;;;;;;5058960;27;38723;-77
2022/06/21 10:43:49;;;;;;;9.45;1.70;;;22.60;99.90;;;;;;5083756;27;48108;-77
2022/06/21 10:46:31;;;;;;;;;;;22.30;99.90;;;;;;5068265;27;36992;-77
2022/06/21 10:49:07;;;;;;;4.93;1.90;;;22.00;99.90;;;;;;5057931;28;40826;-77
2022/06/21 10:51:48;;;;;;;3.22;1.77;;;22.30;99.90;;;;;;5057110;28;47354;-78
2022/06/21 10:54:33;;;;;;;5.45;1.45;;;22.70;99.90;;;;;;5055477;27;39043;-77
2022/06/21 10:57:34;;;;;;;2.65;1.50;;;23.00;99.90;;;;;;5059943;28;37188;-77
2022/06/21 11:03:40;;;;;;;2.78;1.00;;;23.30;99.90;;;;;;5053847;27;49142;-78
2022/06/21 11:06:27;;;;;;;1.98;1.05;;;23.50;99.90;;;;;;5068343;27;38954;-77
2022/06/21 11:09:20;;;;;;;4.15;1.45;;;23.40;99.90;;;;;;5048921;28;37319;-77
2022/06/21 11:11:51;;;;;;;4.80;1.02;;;23.30;99.90;;;;;;5050639;27;48769;-77
2022/06/21 11:14:40;;;;;;;2.65;0.90;;;23.10;99.90;;;;;;5057341;28;37962;-77
2022/06/21 11:17:09;;;;;;;5.50;1.10;;;23.40;99.90;;;;;;5043954;28;38703;-77
2022/06/21 11:19:48;;;;;;;3.83;1.33;;;23.30;99.90;;;;;;5040209;28;41147;-77
2022/06/21 11:22:41;;;;;;;3.30;0.98;;;22.50;99.90;;;;;;5058497;27;40031;-77
2022/06/21 11:25:22;;;;;;;3.85;1.20;;;22.70;99.90;;;;;;5077539;27;39403;-77
2022/06/21 11:28:09;;;;;;;3.35;1.70;;;22.70;99.90;;;;;;5060285;27;39869;-77
2022/06/21 11:30:53;;;;;;;3.03;1.27;;;22.70;99.90;;;;;;5057044;28;47053;-77
2022/06/21 11:33:34;;;;;;;3.50;1.00;;;22.70;99.90;;;;;;5079131;28;39206;-78
2022/06/21 11:36:21;;;;;;;3.00;1.10;;;22.90;99.90;;;;;;5048072;28;40870;-78
2022/06/21 11:39:05;;;;;;;5.72;1.83;;;22.80;99.90;;;;;;5055509;28;48356;-78
2022/06/21 11:44:51;;;;;;;3.42;1.88;;;22.70;99.90;;;;;;5056421;27;38643;-76
2022/06/21 11:47:45;;;;;;;4.18;1.63;;;22.40;99.90;;;;;;5041653;27;39324;-78
2022/06/21 11:50:22;;;;;;;3.45;1.20;;;22.10;99.90;;;;;;5039635;28;40791;-77
2022/06/21 11:53:22;;;;;;;4.85;1.50;;;22.20;99.90;;;;;;5056099;27;37531;-78
2022/06/21 11:56:12;;;;;;;3.55;1.50;;;22.00;99.90;;;;;;5048500;28;45122;-76
2022/06/21 11:59:13;;;;;;;2.97;1.20;;;21.80;99.90;;;;;;5044285;28;48490;-77
2022/06/21 12:02:21;;;;;;;4.55;1.70;;;22.00;99.90;;;;;;5058258;28;46439;-76
2022/06/21 12:05:36;;;;;;;5.50;1.80;;;21.70;99.90;;;;;;5007236;28;46408;-75
2022/06/21 12:08:12;;;;;;;4.32;1.98;;;21.60;99.90;;;;;;4993634;28;47142;-76
2022/06/21 12:10:51;;;;;;;4.55;2.03;;;21.20;99.90;;;;;;5072008;28;47040;-76
2022/06/21 12:13:52;;;;;;;6.45;1.98;;;21.10;99.90;;;;;;5076607;27;39271;-76
2022/06/21 12:16:27;;;;;;;6.63;1.80;;;21.20;99.90;;;;;;5055954;27;38182;-76
2022/06/21 12:19:00;;;;;;;3.72;1.60;;;21.00;99.90;;;;;;5051563;28;40804;-76
2022/06/21 12:21:32;;;;;;;2.45;1.33;;;20.90;99.90;;;;;;5054828;28;41387;-76
2022/06/21 12:24:04;;;;;;;3.63;1.42;;;21.20;99.90;;;;;;5057481;28;39479;-76
2022/06/21 12:26:32;;;;;;;3.25;1.10;;;21.50;99.90;;;;;;5032589;28;47186;-76
2022/06/21 12:29:00;;;;;;;4.00;1.95;;;21.30;99.90;;;;;;5054251;28;40485;-76
2022/06/21 12:31:41;;;;;;;2.75;1.15;;;21.50;99.90;;;;;;5062302;28;39197;-76
2022/06/21 12:34:13;;;;;;;3.88;1.65;;;22.10;99.90;;;;;;5058719;27;38342;-76
2022/06/21 12:36:42;;;;;;;5.80;1.27;;;22.10;99.90;;;;;;5054860;28;37905;-76
2022/06/21 12:39:40;;;;;;;3.03;1.17;;;22.10;99.90;;;;;;5073045;27;38813;-76
2022/06/21 12:42:15;;;;;;;3.58;1.20;;;22.10;99.90;;;;;;5060627;28;39563;-77
2022/06/21 12:45:22;;;;;;;4.60;1.27;;;22.40;99.90;;;;;;5053356;28;39098;-77
2022/06/21 12:48:10;;;;;;;2.15;1.20;;;23.00;99.90;;;;;;5017565;27;48871;-77
2022/06/21 12:50:46;;;;;;;2.65;1.52;;;22.90;99.90;;;;;;5054595;27;48298;-76
2022/06/21 12:53:33;;;;;;;3.13;1.60;;;22.80;99.90;;;;;;5055169;27;39466;-76
2022/06/21 12:56:28;;;;;;;4.30;2.20;;;23.30;99.90;;;;;;5080191;27;39242;-76
2022/06/21 12:59:28;;;;;;;6.82;2.58;;;23.60;99.90;;;;;;5060503;27;48711;-77
2022/06/21 13:02:12;;;;;;;4.93;1.80;;;23.60;99.90;;;;;;5043132;28;47510;-77
2022/06/21 13:04:57;;;;;;;4.97;1.70;;;23.30;99.90;;;;;;5054796;28;47141;-77
2022/06/21 13:07:53;;;;;;;4.38;2.30;;;23.50;99.90;;;;;;5059469;27;40302;-77
2022/06/21 13:10:32;;;;;;;4.25;2.20;;;23.90;99.90;;;;;;5057419;27;38285;-76
2022/06/21 13:13:22;;;;;;;5.80;2.35;;;23.90;99.90;;;;;;5072347;28;39563;-76
2022/06/21 13:16:27;;;;;;;4.22;2.42;;;23.80;99.90;;;;;;5077496;27;45990;-77
2022/06/21 13:18:53;;;;;;;4.68;1.67;;;23.60;99.90;;;;;;5068539;28;48279;-77
2022/06/21 13:21:19;;;;;;;6.65;2.72;;;23.40;99.90;;;;;;5042268;28;38166;-77
2022/06/21 13:24:18;;;;;;;4.03;2.17;;;23.30;99.90;;;;;;5038698;28;38901;-77
2022/06/21 13:27:09;;;;;;;4.97;1.85;;;23.20;99.90;;;;;;5056616;28;46165;-77
2022/06/21 13:29:57;;;;;;;3.60;2.28;;;23.60;99.90;;;;;;5042159;28;47635;-77
2022/06/21 13:32:30;;;;;;;5.85;2.78;;;23.40;99.90;;;;;;5057478;27;37437;-77
2022/06/21 13:35:16;;;;;;;7.30;3.10;;;23.10;99.90;;;;;;5072936;28;39688;-77
2022/06/21 13:37:59;;;;;;;5.30;2.38;;;23.10;99.90;;;;;;5040682;27;47241;-77
2022/06/21 13:40:37;;;;;;;5.57;2.35;;;22.80;99.90;;;;;;5057601;28;37402;-77
2022/06/21 13:43:08;;;;;;;5.20;2.38;;;22.90;99.90;;;;;;5060579;28;37731;-78
2022/06/21 13:45:43;;;;;;;6.45;2.47;;;23.00;99.90;;;;;;5040790;28;39698;-77
2022/06/21 13:48:28;;;;;;;3.65;2.13;;;23.20;99.90;;;;;;5043816;28;39415;-77
2022/06/21 13:51:21;;;;;;;4.53;2.35;;;23.00;99.90;;;;;;5042781;28;40013;-77
2022/06/21 13:53:56;;;;;;;6.35;2.40;;;22.90;99.90;;;;;;5054799;28;47385;-77
2022/06/21 13:56:29;;;;;;;4.00;2.35;;;22.90;99.90;;;;;;5051355;27;40701;-77
2022/06/21 13:59:09;;;;;;;2.95;1.95;;;23.20;99.90;;;;;;5058193;28;40263;-77